createdAt,value
2022-11-05T00:01:40.985Z,87.16
2022-11-05T00:07:01.347Z,87.47
2022-11-05T00:12:23.537Z,87.43
2022-11-05T00:17:27.529Z,87.43
2022-11-05T00:22:55.730Z,87.65
2022-11-05T00:28:02.395Z,87.45
2022-11-05T00:33:06.399Z,87.84
2022-11-05T00:38:08.996Z,87.42
2022-11-05T00:43:29.251Z,87.31
2022-11-05T00:48:51.020Z,87.68
2022-11-05T00:53:53.944Z,87.52
2022-11-05T00:58:57.753Z,87.48
2022-11-05T01:04:01.676Z,87.76
2022-11-05T01:09:04.642Z,87.78
2022-11-05T01:14:09.227Z,87.44
2022-11-05T01:19:13.718Z,87.03
2022-11-05T01:24:16.384Z,87.54
2022-11-05T01:29:19.123Z,87.37
2022-11-05T01:34:23.010Z,87.44
2022-11-05T01:39:25.642Z,87.14
2022-11-05T01:44:55.499Z,87.34
2022-11-05T01:50:08.514Z,87.63
2022-11-05T01:55:11.862Z,87.43
2022-11-05T02:00:16.559Z,87.48
2022-11-05T02:05:20.551Z,87.57
2022-11-05T02:10:23.660Z,87.38
2022-11-05T02:15:35.519Z,87.50
2022-11-05T02:20:45.710Z,87.58
2022-11-05T02:26:12.933Z,87.46
2022-11-05T02:31:23.982Z,87.61
2022-11-05T02:36:35.215Z,88.00
2022-11-05T02:41:43.608Z,87.74
2022-11-05T02:46:55.349Z,87.78
2022-11-05T02:51:59.404Z,87.96
2022-11-05T02:57:03.845Z,88.03
2022-11-05T03:02:07.933Z,87.81
2022-11-05T03:07:21.388Z,88.00
2022-11-05T03:12:33.055Z,87.93
2022-11-05T03:17:41.881Z,87.64
2022-11-05T03:22:49.391Z,87.66
2022-11-05T03:27:55.666Z,87.72
2022-11-05T03:33:01.388Z,87.76
2022-11-05T03:38:08.315Z,87.68
2022-11-05T03:43:11.464Z,87.77
2022-11-05T03:48:16.687Z,87.97
2022-11-05T03:53:23.777Z,88.14
2022-11-05T03:58:27.244Z,88.15
2022-11-05T04:03:36.099Z,88.36
2022-11-05T04:08:56.447Z,88.27
2022-11-05T04:13:59.054Z,88.15
2022-11-05T04:19:03.224Z,88.38
2022-11-05T04:24:09.405Z,88.27
2022-11-05T04:29:29.641Z,88.60
2022-11-05T04:34:33.650Z,88.49
2022-11-05T04:39:36.211Z,88.53
2022-11-05T04:44:38.805Z,88.51
2022-11-05T04:49:42.809Z,88.45
2022-11-05T04:54:45.370Z,88.84
2022-11-05T04:59:49.170Z,88.80
2022-11-05T05:04:53.516Z,88.74
2022-11-05T05:09:56.303Z,88.76
2022-11-05T05:14:58.893Z,88.85
2022-11-05T05:20:20.568Z,88.93
2022-11-05T05:25:23.603Z,88.98
2022-11-05T05:30:26.398Z,89.08
2022-11-05T05:35:30.439Z,89.23
2022-11-05T05:40:33.032Z,89.15
2022-11-05T05:45:36.077Z,89.25
2022-11-05T05:50:40.125Z,89.14
2022-11-05T05:55:42.946Z,89.08
2022-11-05T06:00:45.525Z,88.69
2022-11-05T06:05:49.743Z,89.07
2022-11-05T06:10:55.003Z,89.11
2022-11-05T06:16:01.204Z,88.83
2022-11-05T06:21:06.553Z,89.04
2022-11-05T06:26:10.800Z,88.89
2022-11-05T06:31:14.772Z,88.31
2022-11-05T06:36:20.237Z,88.27
2022-11-05T06:41:22.881Z,88.22
2022-11-05T06:46:25.430Z,88.02
2022-11-05T06:51:30.225Z,88.23
2022-11-05T06:56:32.888Z,87.53
2022-11-05T07:01:35.627Z,87.80
2022-11-05T07:06:39.601Z,88.07
2022-11-05T07:11:42.226Z,88.38
2022-11-05T07:16:44.993Z,88.34
2022-11-05T07:21:50.801Z,88.15
2022-11-05T07:26:53.716Z,88.13
2022-11-05T07:31:56.311Z,88.07
2022-11-05T07:37:00.299Z,88.09
2022-11-05T07:42:04.596Z,87.68
2022-11-05T07:47:09.494Z,87.76
2022-11-05T07:52:15.963Z,87.81
2022-11-05T07:57:18.522Z,87.67
2022-11-05T08:02:23.989Z,87.22
2022-11-05T08:07:29.140Z,87.14
2022-11-05T08:12:32.326Z,87.12
2022-11-05T08:17:35.627Z,87.08
2022-11-05T08:22:42.979Z,86.88
2022-11-05T08:27:45.732Z,86.64
2022-11-05T08:32:48.477Z,86.62
2022-11-05T08:37:52.472Z,86.65
2022-11-05T08:42:57.977Z,86.41
2022-11-05T08:48:01.350Z,86.21
2022-11-05T08:53:06.026Z,86.25
2022-11-05T08:58:12.403Z,86.34
2022-11-05T09:03:15.882Z,86.11
2022-11-05T09:08:20.055Z,86.09
2022-11-05T09:13:23.120Z,85.56
2022-11-05T09:18:25.970Z,85.35
2022-11-05T09:23:36.283Z,85.43
2022-11-05T09:28:38.959Z,85.07
2022-11-05T09:33:43.049Z,85.06
2022-11-05T09:38:46.974Z,84.92
2022-11-05T09:43:52.683Z,84.74
2022-11-05T09:49:05.468Z,84.82
2022-11-05T09:54:11.546Z,84.47
2022-11-05T09:59:17.906Z,84.48
2022-11-05T10:04:23.512Z,84.28
2022-11-05T10:09:29.226Z,83.85
2022-11-05T10:14:34.934Z,83.36
2022-11-05T10:19:43.867Z,82.94
2022-11-05T10:24:49.206Z,82.56
2022-11-05T10:29:52.652Z,82.24
2022-11-05T10:34:57.290Z,81.80
2022-11-05T10:40:01.834Z,81.77
2022-11-05T10:45:13.700Z,81.45
2022-11-05T10:50:18.976Z,81.62
2022-11-05T10:55:25.534Z,80.96
2022-11-05T11:00:29.258Z,80.81
2022-11-05T11:05:34.090Z,80.39
2022-11-05T11:10:42.768Z,80.30
2022-11-05T11:15:45.422Z,81.02
2022-11-05T11:20:53.201Z,81.18
2022-11-05T11:26:01.662Z,81.19
2022-11-05T11:31:06.346Z,81.22
2022-11-05T11:36:10.961Z,80.81
2022-11-05T11:41:25.256Z,81.37
2022-11-05T11:46:32.283Z,81.30
2022-11-05T11:51:40.451Z,81.07
2022-11-05T11:56:46.382Z,80.83
2022-11-05T12:02:07.930Z,79.17
2022-11-05T12:07:20.119Z,77.14
2022-11-05T12:12:30.068Z,75.17
2022-11-05T12:17:42.481Z,74.21
2022-11-05T12:23:01.681Z,73.89
2022-11-05T12:28:23.206Z,72.96
2022-11-05T12:33:36.401Z,73.17
2022-11-05T12:38:58.450Z,73.19
2022-11-05T12:44:24.359Z,72.22
2022-11-05T12:49:40.753Z,71.73
2022-11-05T12:54:59.508Z,71.34
2022-11-05T13:00:08.559Z,73.73
2022-11-05T13:05:15.200Z,75.26
2022-11-05T13:10:24.623Z,76.57
2022-11-05T13:15:30.719Z,76.73
2022-11-05T13:20:39.720Z,76.20
2022-11-05T13:25:47.611Z,76.32
2022-11-05T13:30:53.938Z,76.33
2022-11-05T13:36:13.523Z,76.68
2022-11-05T13:41:28.215Z,76.54
2022-11-05T13:47:00.728Z,76.58
2022-11-05T13:52:22.672Z,76.53
2022-11-05T13:57:45.120Z,76.38
2022-11-05T14:02:52.160Z,76.35
2022-11-05T14:07:55.218Z,76.37
2022-11-05T14:12:59.970Z,76.04
2022-11-05T14:18:05.441Z,75.77
2022-11-05T14:23:48.374Z,76.04
2022-11-05T14:29:10.829Z,76.08
2022-11-05T14:34:24.907Z,75.83
2022-11-05T14:39:29.832Z,75.87
2022-11-05T14:44:35.871Z,76.12
2022-11-05T14:49:49.708Z,76.35
2022-11-05T14:54:55.142Z,76.32
2022-11-05T15:00:00.778Z,76.62
2022-11-05T15:05:37.664Z,76.38
2022-11-05T15:10:40.320Z,76.33
2022-11-05T15:15:45.243Z,76.53
2022-11-05T15:20:50.932Z,76.16
2022-11-05T15:26:02.060Z,76.68
2022-11-05T15:31:07.498Z,77.24
2022-11-05T15:36:29.535Z,77.06
2022-11-05T15:41:34.588Z,77.24
2022-11-05T15:46:37.362Z,77.29
2022-11-05T15:51:53.420Z,77.20
2022-11-05T15:56:58.043Z,77.51
2022-11-05T16:02:06.976Z,77.42
2022-11-05T16:07:12.813Z,77.64
2022-11-05T16:12:24.930Z,77.64
2022-11-05T16:17:29.320Z,77.71
2022-11-05T16:22:51.157Z,77.69
2022-11-05T16:27:53.873Z,77.86
2022-11-05T16:33:04.166Z,78.23
2022-11-05T16:38:08.189Z,78.72
2022-11-05T16:43:19.021Z,78.75
2022-11-05T16:48:21.700Z,78.82
2022-11-05T16:53:25.936Z,78.92
2022-11-05T16:58:28.545Z,79.16
2022-11-05T17:03:31.596Z,78.76
2022-11-05T17:08:35.679Z,78.73
2022-11-05T17:13:38.271Z,78.75
2022-11-05T17:18:41.981Z,78.64
2022-11-05T17:23:46.291Z,78.68
2022-11-05T17:28:48.918Z,78.69
2022-11-05T17:33:51.481Z,78.94
2022-11-05T17:38:55.716Z,79.23
2022-11-05T17:43:58.644Z,79.19
2022-11-05T17:49:01.335Z,79.08
2022-11-05T17:54:05.377Z,79.01
2022-11-05T17:59:08.054Z,78.90
2022-11-05T18:04:10.934Z,79.02
2022-11-05T18:09:17.506Z,79.01
2022-11-05T18:14:24.026Z,79.17
2022-11-05T18:19:27.630Z,79.24
2022-11-05T18:24:32.249Z,79.11
2022-11-05T18:29:37.959Z,78.99
2022-11-05T18:34:40.752Z,78.93
2022-11-05T18:39:45.027Z,79.04
2022-11-05T18:44:48.177Z,79.01
2022-11-05T18:49:50.843Z,79.11
2022-11-05T18:54:54.832Z,79.44
2022-11-05T18:59:57.417Z,79.29
2022-11-05T19:05:27.588Z,79.20
2022-11-05T19:10:23.967Z,78.94
2022-11-05T19:15:26.577Z,79.03
2022-11-05T19:20:33.660Z,78.93
2022-11-05T19:25:40.680Z,78.67
2022-11-05T19:30:43.420Z,78.92
2022-11-05T19:35:46.254Z,78.57
2022-11-05T19:40:50.225Z,78.88
2022-11-05T19:45:52.825Z,78.82
2022-11-05T19:51:00.804Z,78.93
2022-11-05T19:56:07.288Z,78.65
2022-11-05T20:01:10.465Z,78.90
2022-11-05T20:06:15.600Z,78.42
2022-11-05T20:11:19.882Z,78.67
2022-11-05T20:16:23.444Z,78.81
2022-11-05T20:21:26.136Z,78.44
2022-11-05T20:26:30.390Z,78.21
2022-11-05T20:31:33.352Z,78.21
2022-11-05T20:36:35.984Z,78.33
2022-11-05T20:41:40.085Z,78.51
2022-11-05T20:46:42.764Z,78.60
2022-11-05T20:51:45.368Z,78.48
2022-11-05T20:56:49.479Z,78.29
2022-11-05T21:01:53.168Z,78.55
2022-11-05T21:06:55.832Z,78.86
2022-11-05T21:12:11.742Z,78.64
2022-11-05T21:17:14.961Z,78.87
2022-11-05T21:22:17.596Z,78.66
2022-11-05T21:27:21.507Z,78.66
2022-11-05T21:32:24.179Z,78.58
2022-11-05T21:37:26.980Z,78.85
2022-11-05T21:42:31.255Z,78.71
2022-11-05T21:47:33.901Z,78.73
2022-11-05T21:52:53.963Z,78.59
2022-11-05T21:58:21.600Z,78.71
2022-11-05T22:03:24.287Z,79.38
2022-11-05T22:08:27.234Z,79.13
2022-11-05T22:13:34.450Z,79.18
2022-11-05T22:18:37.037Z,78.97
2022-11-05T22:23:39.646Z,78.88
2022-11-05T22:28:43.555Z,78.79
2022-11-05T22:33:46.155Z,78.76
2022-11-05T22:38:48.982Z,78.66
2022-11-05T22:43:53.060Z,79.27
2022-11-05T22:48:56.119Z,79.21
2022-11-05T22:53:58.971Z,79.30
2022-11-05T22:59:03.244Z,79.18
2022-11-05T23:04:05.933Z,79.01
2022-11-05T23:09:31.360Z,78.97
2022-11-05T23:14:41.641Z,79.18
2022-11-05T23:20:02.067Z,79.14
2022-11-05T23:25:05.596Z,79.30
2022-11-05T23:30:12.616Z,79.61
2022-11-05T23:35:15.774Z,79.50
2022-11-05T23:40:20.697Z,79.26
2022-11-05T23:45:50.776Z,79.27
2022-11-05T23:50:58.828Z,79.55
2022-11-05T23:56:02.869Z,79.52
